createdAt,value
2022-09-14T00:01:40.512Z,100338.84
2022-09-14T00:04:14.484Z,100335.97
2022-09-14T00:06:43.564Z,100338.84
2022-09-14T00:09:20.518Z,100338.00
2022-09-14T00:11:50.065Z,100338.06
2022-09-14T00:14:19.243Z,100339.91
2022-09-14T00:16:47.595Z,100331.97
2022-09-14T00:19:24.372Z,100331.19
2022-09-14T00:21:56.048Z,100315.47
2022-09-14T00:24:26.048Z,100319.34
2022-09-14T00:26:54.483Z,100318.16
2022-09-14T00:29:24.112Z,100304.25
2022-09-14T00:31:52.471Z,100301.13
2022-09-14T00:34:20.736Z,100304.84
2022-09-14T00:36:51.062Z,100297.47
2022-09-14T00:39:21.268Z,100298.72
2022-09-14T00:41:50.734Z,100309.97
2022-09-14T00:44:18.989Z,100301.41
2022-09-14T00:46:52.071Z,100304.06
2022-09-14T00:49:26.065Z,100312.38
2022-09-14T00:52:08.973Z,100316.53
2022-09-14T00:54:49.881Z,100314.38
2022-09-14T00:57:19.296Z,100310.47
2022-09-14T00:59:50.402Z,100312.00
2022-09-14T01:02:21.409Z,100309.94
2022-09-14T01:04:51.195Z,100306.47
2022-09-14T01:07:22.304Z,100313.22
2022-09-14T01:10:14.546Z,100300.75
2022-09-14T01:13:03.978Z,100308.34
2022-09-14T01:15:38.301Z,100283.84
2022-09-14T01:18:28.133Z,100282.69
2022-09-14T01:21:10.522Z,100279.63
2022-09-14T01:23:50.445Z,100274.13
2022-09-14T01:26:43.225Z,100279.22
2022-09-14T01:29:17.957Z,100257.41
2022-09-14T01:31:49.177Z,100260.09
2022-09-14T01:34:54.260Z,100258.50
2022-09-14T01:37:28.790Z,100244.94
2022-09-14T01:40:12.617Z,100256.00
2022-09-14T01:42:44.549Z,100244.56
2022-09-14T01:45:18.179Z,100238.81
2022-09-14T01:47:49.243Z,100231.63
2022-09-14T01:50:47.192Z,100244.53
2022-09-14T01:53:21.089Z,100244.72
2022-09-14T01:56:20.170Z,100242.66
2022-09-14T01:58:58.611Z,100252.78
2022-09-14T02:01:34.968Z,100239.69
2022-09-14T02:04:07.172Z,100238.50
2022-09-14T02:06:45.471Z,100245.25
2022-09-14T02:09:22.595Z,100233.81
2022-09-14T02:11:51.198Z,100226.22
2022-09-14T02:14:19.348Z,100220.31
2022-09-14T02:16:47.491Z,100215.38
2022-09-14T02:19:16.833Z,100207.41
2022-09-14T02:21:47.652Z,100206.78
2022-09-14T02:24:16.125Z,100201.69
2022-09-14T02:26:44.476Z,100199.63
2022-09-14T02:29:13.015Z,100180.44
2022-09-14T02:32:12.775Z,100181.66
2022-09-14T02:35:11.086Z,100176.53
2022-09-14T02:37:48.187Z,100175.72
2022-09-14T02:40:28.029Z,100165.31
2022-09-14T02:43:22.995Z,100156.13
2022-09-14T02:45:51.031Z,100163.31
2022-09-14T02:48:45.009Z,100168.44
2022-09-14T02:51:30.530Z,100175.19
2022-09-14T02:54:16.145Z,100179.28
2022-09-14T02:56:45.104Z,100179.31
2022-09-14T02:59:13.450Z,100192.44
2022-09-14T03:01:44.646Z,100182.97
2022-09-14T03:04:12.822Z,100193.84
2022-09-14T03:06:41.011Z,100193.03
2022-09-14T03:09:09.128Z,100192.50
2022-09-14T03:11:37.208Z,100197.44
2022-09-14T03:14:05.784Z,100195.56
2022-09-14T03:16:33.986Z,100198.22
2022-09-14T03:19:02.121Z,100193.00
2022-09-14T03:21:30.255Z,100186.47
2022-09-14T03:23:58.661Z,100182.44
2022-09-14T03:26:29.689Z,100182.06
2022-09-14T03:28:59.220Z,100175.00
2022-09-14T03:31:27.729Z,100168.34
2022-09-14T03:33:58.221Z,100165.34
2022-09-14T03:36:28.366Z,100164.50
2022-09-14T03:38:58.926Z,100163.22
2022-09-14T03:41:27.378Z,100171.38
2022-09-14T03:43:58.084Z,100175.88
2022-09-14T03:46:27.195Z,100174.22
2022-09-14T03:48:56.167Z,100167.03
2022-09-14T03:51:24.640Z,100174.38
2022-09-14T03:53:52.777Z,100179.28
2022-09-14T03:56:22.586Z,100183.69
2022-09-14T03:58:50.830Z,100176.44
2022-09-14T04:01:21.947Z,100176.72
2022-09-14T04:03:51.202Z,100182.38
2022-09-14T04:06:19.876Z,100178.69
2022-09-14T04:08:48.593Z,100177.44
2022-09-14T04:11:20.875Z,100182.88
2022-09-14T04:13:49.678Z,100187.53
2022-09-14T04:16:22.855Z,100172.28
2022-09-14T04:18:51.199Z,100172.88
2022-09-14T04:21:22.029Z,100182.53
2022-09-14T04:24:14.068Z,100171.78
2022-09-14T04:26:43.320Z,100186.06
2022-09-14T04:29:12.805Z,100187.16
2022-09-14T04:31:41.118Z,100195.78
2022-09-14T04:34:12.847Z,100188.94
2022-09-14T04:36:41.088Z,100188.72
2022-09-14T04:39:13.657Z,100194.22
2022-09-14T04:41:42.066Z,100216.78
2022-09-14T04:44:10.525Z,100208.97
2022-09-14T04:46:45.095Z,100213.03
2022-09-14T04:49:15.006Z,100213.31
2022-09-14T04:51:43.169Z,100210.66
2022-09-14T04:54:15.707Z,100211.88
2022-09-14T04:56:44.431Z,100214.78
2022-09-14T04:59:13.299Z,100211.03
2022-09-14T05:01:44.567Z,100211.75
2022-09-14T05:04:15.265Z,100206.88
2022-09-14T05:06:44.393Z,100201.47
2022-09-14T05:09:15.466Z,100200.59
2022-09-14T05:11:44.296Z,100195.78
2022-09-14T05:14:14.038Z,100197.94
2022-09-14T05:16:43.577Z,100199.84
2022-09-14T05:19:16.914Z,100199.91
2022-09-14T05:21:45.376Z,100198.94
2022-09-14T05:24:19.839Z,100196.75
2022-09-14T05:26:52.010Z,100202.28
2022-09-14T05:29:20.291Z,100195.28
2022-09-14T05:31:48.406Z,100195.09
2022-09-14T05:34:19.822Z,100191.69
2022-09-14T05:36:47.894Z,100193.59
2022-09-14T05:39:19.799Z,100201.50
2022-09-14T05:41:51.064Z,100209.56
2022-09-14T05:44:19.392Z,100200.06
2022-09-14T05:46:47.580Z,100190.78
2022-09-14T05:49:15.663Z,100196.94
2022-09-14T05:51:43.861Z,100190.34
2022-09-14T05:54:12.123Z,100182.19
2022-09-14T05:56:40.246Z,100185.50
2022-09-14T05:59:08.463Z,100192.75
2022-09-14T06:01:36.629Z,100188.03
2022-09-14T06:04:04.819Z,100176.28
2022-09-14T06:06:33.744Z,100170.22
2022-09-14T06:09:02.912Z,100162.28
2022-09-14T06:11:33.865Z,100153.09
2022-09-14T06:14:02.266Z,100156.59
2022-09-14T06:16:30.688Z,100150.31
2022-09-14T06:19:02.459Z,100147.44
2022-09-14T06:21:32.674Z,100147.25
2022-09-14T06:24:01.133Z,100145.78
2022-09-14T06:26:29.271Z,100140.06
2022-09-14T06:28:57.564Z,100132.47
2022-09-14T06:31:25.828Z,100131.00
2022-09-14T06:33:54.484Z,100125.44
2022-09-14T06:36:27.333Z,100133.22
2022-09-14T06:38:56.091Z,100145.00
2022-09-14T06:41:29.054Z,100157.31
2022-09-14T06:43:59.540Z,100147.00
2022-09-14T06:46:30.992Z,100157.72
2022-09-14T06:49:05.274Z,100162.38
2022-09-14T06:51:39.647Z,100180.28
2022-09-14T06:54:12.164Z,100176.09
2022-09-14T06:56:42.681Z,100179.78
2022-09-14T06:59:13.331Z,100175.09
2022-09-14T07:01:42.395Z,100167.50
2022-09-14T07:04:10.508Z,100163.50
2022-09-14T07:06:47.064Z,100155.28
2022-09-14T07:09:17.103Z,100165.06
2022-09-14T07:11:45.752Z,100170.78
2022-09-14T07:14:13.885Z,100187.28
2022-09-14T07:16:42.075Z,100187.75
2022-09-14T07:19:14.078Z,100201.25
2022-09-14T07:21:42.923Z,100213.13
2022-09-14T07:24:15.072Z,100217.44
2022-09-14T07:26:43.611Z,100232.25
2022-09-14T07:29:16.816Z,100254.22
2022-09-14T07:31:48.066Z,100258.22
2022-09-14T07:34:16.904Z,100268.22
2022-09-14T07:36:45.442Z,100268.31
2022-09-14T07:39:15.517Z,100279.91
2022-09-14T07:41:44.397Z,100294.91
2022-09-14T07:44:16.347Z,100293.91
2022-09-14T07:46:45.940Z,100295.81
2022-09-14T07:49:15.741Z,100298.13
2022-09-14T07:51:44.219Z,100301.41
2022-09-14T07:54:14.074Z,100310.47
2022-09-14T07:56:43.609Z,100320.84
2022-09-14T08:02:02.106Z,100337.97
2022-09-14T08:04:30.366Z,100331.31
2022-09-14T08:06:58.967Z,100323.63
2022-09-14T08:09:27.555Z,100319.09
2022-09-14T08:11:56.080Z,100317.00
2022-09-14T08:14:27.416Z,100309.69
2022-09-14T08:16:55.567Z,100314.88
2022-09-14T08:19:24.015Z,100319.22
2022-09-14T08:21:52.196Z,100316.50
2022-09-14T08:24:22.011Z,100319.84
2022-09-14T08:26:50.603Z,100325.88
2022-09-14T08:29:19.607Z,100325.09
2022-09-14T08:31:48.673Z,100328.75
2022-09-14T08:34:17.373Z,100332.63
2022-09-14T08:36:48.149Z,100322.81
2022-09-14T08:39:17.302Z,100319.50
2022-09-14T08:41:57.012Z,100317.84
2022-09-14T08:44:30.975Z,100326.41
2022-09-14T08:47:02.923Z,100322.25
2022-09-14T08:50:12.190Z,100318.44
2022-09-14T08:52:55.952Z,100320.41
2022-09-14T08:55:48.956Z,100320.66
2022-09-14T08:58:53.884Z,100324.53
2022-09-14T09:01:31.097Z,100319.94
2022-09-14T09:04:36.238Z,100314.72
2022-09-14T09:07:11.554Z,100318.25
2022-09-14T09:09:45.075Z,100326.28
2022-09-14T09:12:19.542Z,100332.31
2022-09-14T09:15:00.658Z,100320.94
2022-09-14T09:17:35.118Z,100332.94
2022-09-14T09:20:16.020Z,100334.53
2022-09-14T09:23:01.351Z,100335.34
2022-09-14T09:25:39.352Z,100338.50
2022-09-14T09:28:12.429Z,100333.47
2022-09-14T09:30:41.411Z,100337.94
2022-09-14T09:33:17.882Z,100344.81
2022-09-14T09:36:15.869Z,100355.00
2022-09-14T09:38:44.198Z,100368.44
2022-09-14T09:41:21.923Z,100363.38
2022-09-14T09:44:09.421Z,100369.88
2022-09-14T09:46:51.278Z,100362.56
2022-09-14T09:49:21.996Z,100347.38
2022-09-14T09:51:51.415Z,100335.38
2022-09-14T09:54:30.478Z,100315.44
2022-09-14T09:57:04.536Z,100313.81
2022-09-14T09:59:35.434Z,100310.66
2022-09-14T10:02:31.385Z,100296.34
2022-09-14T10:05:10.188Z,100279.84
2022-09-14T10:07:59.703Z,100277.47
2022-09-14T10:10:45.248Z,100266.78
2022-09-14T10:13:38.212Z,100260.69
2022-09-14T10:16:18.777Z,100244.38
2022-09-14T10:18:49.867Z,100231.06
2022-09-14T10:21:20.480Z,100219.53
2022-09-14T10:24:20.523Z,100203.19
2022-09-14T10:26:48.612Z,100183.38
2022-09-14T10:29:39.761Z,100171.75
2022-09-14T10:32:24.073Z,100166.19
2022-09-14T10:34:52.807Z,100137.78
2022-09-14T10:37:32.138Z,100123.38
2022-09-14T10:40:17.470Z,100113.94
2022-09-14T10:43:08.842Z,100100.31
2022-09-14T10:45:50.952Z,100091.50
2022-09-14T10:48:52.724Z,100089.53
2022-09-14T10:51:29.815Z,100074.47
2022-09-14T10:54:27.588Z,100083.91
2022-09-14T10:57:10.338Z,100082.16
2022-09-14T10:59:54.266Z,100096.78
2022-09-14T11:02:40.193Z,100121.28
2022-09-14T11:05:30.228Z,100145.63
2022-09-14T11:08:08.289Z,100148.97
2022-09-14T11:10:46.940Z,100153.59
2022-09-14T11:13:23.712Z,100148.28
2022-09-14T11:15:57.863Z,100129.13
2022-09-14T11:18:51.438Z,100121.13
2022-09-14T11:21:30.058Z,100104.25
2022-09-14T11:24:14.212Z,100089.84
2022-09-14T11:27:06.771Z,100081.84
2022-09-14T11:29:53.059Z,100071.63
2022-09-14T11:32:26.967Z,100057.38
2022-09-14T11:35:21.194Z,100021.50
2022-09-14T11:37:53.003Z,100022.25
2022-09-14T11:40:35.149Z,100023.88
2022-09-14T11:43:11.376Z,100048.69
2022-09-14T11:45:39.545Z,100061.66
2022-09-14T11:48:42.443Z,100084.63
2022-09-14T11:51:11.309Z,100100.25
2022-09-14T11:53:42.872Z,100111.88
2022-09-14T11:56:26.295Z,100112.94
2022-09-14T11:59:00.641Z,100126.38
2022-09-14T12:01:36.915Z,100124.53
2022-09-14T12:04:16.986Z,100131.19
2022-09-14T12:06:49.597Z,100106.06
2022-09-14T12:09:21.457Z,100082.84
2022-09-14T12:11:58.592Z,100078.25
2022-09-14T12:14:30.324Z,100057.25
2022-09-14T12:17:45.938Z,100079.88
2022-09-14T12:20:29.527Z,100115.53
2022-09-14T12:23:25.898Z,100108.28
2022-09-14T12:26:02.628Z,100100.81
2022-09-14T12:28:39.345Z,100078.41
2022-09-14T12:31:29.342Z,100082.19
2022-09-14T12:34:16.441Z,100082.44
2022-09-14T12:36:44.477Z,100085.97
2022-09-14T12:39:30.929Z,100088.91
2022-09-14T12:42:02.060Z,100088.00
2022-09-14T12:44:43.741Z,100100.63
2022-09-14T12:47:29.969Z,100099.25
2022-09-14T12:50:16.159Z,100098.63
2022-09-14T12:52:44.177Z,100093.88
2022-09-14T12:55:42.719Z,100103.38
2022-09-14T12:58:30.863Z,100102.97
2022-09-14T13:01:08.026Z,100081.91
2022-09-14T13:03:48.757Z,100084.94
2022-09-14T13:06:18.251Z,100079.59
2022-09-14T13:08:53.963Z,100074.59
2022-09-14T13:11:39.500Z,100087.59
2022-09-14T13:14:16.451Z,100088.34
2022-09-14T13:16:47.651Z,100082.91
2022-09-14T13:19:42.463Z,100073.53
2022-09-14T13:22:25.453Z,100066.81
2022-09-14T13:24:53.975Z,100059.25
2022-09-14T13:27:36.146Z,100057.09
2022-09-14T13:30:23.041Z,100064.38
2022-09-14T13:32:54.603Z,100058.97
2022-09-14T13:35:36.078Z,100061.69
2022-09-14T13:38:26.523Z,100068.69
2022-09-14T13:41:03.904Z,100071.31
2022-09-14T13:43:32.895Z,100065.91
2022-09-14T13:46:01.524Z,100067.75
2022-09-14T13:48:30.531Z,100062.06
2022-09-14T13:51:03.461Z,100052.31
2022-09-14T13:53:40.708Z,100049.34
2022-09-14T13:56:28.176Z,100057.59
2022-09-14T13:59:18.308Z,100059.78
2022-09-14T14:01:57.925Z,100065.56
2022-09-14T14:04:37.378Z,100064.44
2022-09-14T14:07:27.594Z,100057.94
2022-09-14T14:09:58.816Z,100068.38
2022-09-14T14:12:37.007Z,100050.84
2022-09-14T14:15:28.566Z,100050.59
2022-09-14T14:18:02.295Z,100046.84
2022-09-14T14:20:34.328Z,100041.69
2022-09-14T14:23:21.585Z,100047.06
2022-09-14T14:25:54.373Z,100041.59
2022-09-14T14:28:30.948Z,100038.00
2022-09-14T14:31:07.752Z,100048.47
2022-09-14T14:33:44.484Z,100044.16
2022-09-14T14:36:13.471Z,100058.88
2022-09-14T14:38:45.981Z,100057.91
2022-09-14T14:41:17.543Z,100054.97
2022-09-14T14:43:47.700Z,100047.13
2022-09-14T14:46:16.654Z,100041.38
2022-09-14T14:48:44.899Z,100029.81
2022-09-14T14:51:15.655Z,100042.16
2022-09-14T14:53:44.723Z,100044.22
2022-09-14T14:56:14.177Z,100028.63
2022-09-14T14:58:46.784Z,100028.25
2022-09-14T15:01:16.427Z,100033.00
2022-09-14T15:03:44.774Z,100035.06
2022-09-14T15:06:16.583Z,100034.78
2022-09-14T15:08:47.850Z,100034.44
2022-09-14T15:11:19.405Z,100046.44
2022-09-14T15:13:47.847Z,100050.19
2022-09-14T15:16:16.495Z,100062.19
2022-09-14T15:18:44.719Z,100065.59
2022-09-14T15:21:12.882Z,100061.75
2022-09-14T15:23:41.361Z,100064.38
2022-09-14T15:26:09.638Z,100068.84
2022-09-14T15:28:38.668Z,100063.47
2022-09-14T15:31:08.132Z,100069.88
2022-09-14T15:33:36.293Z,100069.53
2022-09-14T15:36:04.482Z,100068.88
2022-09-14T15:38:32.541Z,100060.34
2022-09-14T15:41:00.739Z,100056.13
2022-09-14T15:43:28.901Z,100053.63
2022-09-14T15:46:02.936Z,100050.53
2022-09-14T15:48:31.084Z,100051.25
2022-09-14T15:51:00.729Z,100060.50
2022-09-14T15:53:29.793Z,100068.63
2022-09-14T15:56:00.814Z,100064.94
2022-09-14T15:58:30.854Z,100077.78
2022-09-14T16:00:59.127Z,100072.06
2022-09-14T16:03:27.415Z,100078.28
2022-09-14T16:05:55.503Z,100081.88
2022-09-14T16:08:23.551Z,100074.63
2022-09-14T16:10:58.695Z,100091.47
2022-09-14T16:13:27.068Z,100087.88
2022-09-14T16:16:07.388Z,100084.28
2022-09-14T16:18:36.326Z,100073.59
2022-09-14T16:21:15.919Z,100062.91
2022-09-14T16:23:46.792Z,100056.41
2022-09-14T16:26:17.562Z,100046.88
2022-09-14T16:28:48.016Z,100041.75
2022-09-14T16:31:33.948Z,100053.56
2022-09-14T16:34:05.256Z,100050.22
2022-09-14T16:36:36.890Z,100050.34
2022-09-14T16:39:16.496Z,100049.25
2022-09-14T16:41:45.579Z,100054.47
2022-09-14T16:44:16.855Z,100036.91
2022-09-14T16:46:45.651Z,100036.91
2022-09-14T16:49:18.046Z,100027.25
2022-09-14T16:51:49.010Z,100019.88
2022-09-14T16:54:19.726Z,100017.06
2022-09-14T16:56:48.545Z,100003.94
2022-09-14T16:59:17.763Z,100009.72
2022-09-14T17:01:51.932Z,100006.81
2022-09-14T17:04:23.058Z,100007.50
2022-09-14T17:06:52.159Z,100007.28
2022-09-14T17:09:23.342Z,100006.16
2022-09-14T17:11:52.094Z,99995.59
2022-09-14T17:14:26.336Z,100001.91
2022-09-14T17:16:54.913Z,100010.16
2022-09-14T17:19:23.565Z,100002.81
2022-09-14T17:21:51.652Z,100001.03
2022-09-14T17:24:21.937Z,99992.09
2022-09-14T17:26:50.395Z,99985.38
2022-09-14T17:29:18.743Z,99974.78
2022-09-14T17:31:47.301Z,99967.25
2022-09-14T17:34:17.158Z,99972.22
2022-09-14T17:36:46.076Z,99974.97
2022-09-14T17:39:15.677Z,99980.16
2022-09-14T17:41:44.201Z,99978.94
2022-09-14T17:44:14.519Z,99977.09
2022-09-14T17:46:52.500Z,99976.34
2022-09-14T17:49:22.972Z,99980.94
2022-09-14T17:51:51.351Z,99992.66
2022-09-14T17:54:19.973Z,99996.56
2022-09-14T17:56:48.667Z,99999.44
2022-09-14T17:59:21.789Z,99993.91
2022-09-14T18:01:50.510Z,100001.91
2022-09-14T18:04:19.261Z,100001.53
2022-09-14T18:06:49.187Z,99995.00
2022-09-14T18:09:22.621Z,99996.22
2022-09-14T18:11:51.614Z,99999.97
2022-09-14T18:14:19.788Z,99991.72
2022-09-14T18:16:48.335Z,99987.66
2022-09-14T18:19:17.100Z,99988.06
2022-09-14T18:21:50.294Z,99988.16
2022-09-14T18:24:20.414Z,99994.91
2022-09-14T18:26:48.765Z,99997.59
2022-09-14T18:29:20.999Z,99985.06
2022-09-14T18:31:49.697Z,99995.72
2022-09-14T18:34:18.437Z,99993.50
2022-09-14T18:36:46.609Z,100000.91
2022-09-14T18:39:14.945Z,99998.69
2022-09-14T18:41:43.701Z,100000.91
2022-09-14T18:44:11.816Z,100003.56
2022-09-14T18:46:40.113Z,100005.41
2022-09-14T18:49:08.992Z,100002.31
2022-09-14T18:51:38.230Z,100010.91
2022-09-14T18:54:09.809Z,100008.66
2022-09-14T18:56:38.427Z,100013.13
2022-09-14T18:59:10.156Z,100007.22
2022-09-14T19:01:39.006Z,100016.88
2022-09-14T19:04:08.964Z,100018.34
2022-09-14T19:06:38.299Z,100025.97
2022-09-14T19:09:07.520Z,100015.97
2022-09-14T19:11:36.199Z,100014.75
2022-09-14T19:14:10.101Z,100026.41
2022-09-14T19:16:39.865Z,100030.50
2022-09-14T19:19:10.681Z,100030.31
2022-09-14T19:21:38.875Z,100024.16
2022-09-14T19:24:15.690Z,100030.09
2022-09-14T19:26:52.793Z,100027.28
2022-09-14T19:29:23.123Z,100022.59
2022-09-14T19:31:52.480Z,100016.88
2022-09-14T19:34:24.158Z,100012.75
2022-09-14T19:36:53.669Z,100008.88
2022-09-14T19:39:23.768Z,100019.59
2022-09-14T19:41:52.808Z,100020.50
2022-09-14T19:44:23.178Z,100018.44
2022-09-14T19:46:51.412Z,100022.34
2022-09-14T19:49:22.596Z,100014.38
2022-09-14T19:51:51.606Z,100020.53
2022-09-14T19:54:20.040Z,100016.22
2022-09-14T19:56:48.235Z,100009.91
2022-09-14T19:59:16.778Z,100007.47
2022-09-14T20:01:45.523Z,100009.09
2022-09-14T20:04:15.775Z,100010.78
2022-09-14T20:06:45.418Z,100004.22
2022-09-14T20:09:17.204Z,99998.50
2022-09-14T20:11:47.195Z,99998.91
2022-09-14T20:14:19.368Z,100004.44
2022-09-14T20:16:50.394Z,100008.31
2022-09-14T20:19:20.623Z,100006.25
2022-09-14T20:21:50.684Z,99994.19
2022-09-14T20:24:25.403Z,99995.84
2022-09-14T20:26:56.618Z,99996.00
2022-09-14T20:29:26.109Z,100000.25
2022-09-14T20:31:54.224Z,99994.75
2022-09-14T20:34:22.770Z,99995.41
2022-09-14T20:36:52.212Z,99994.19
2022-09-14T20:39:22.174Z,99984.78
2022-09-14T20:41:50.611Z,99984.56
2022-09-14T20:44:23.099Z,99992.16
2022-09-14T20:46:51.903Z,99985.22
2022-09-14T20:49:22.972Z,99978.91
2022-09-14T20:51:54.961Z,99977.72
2022-09-14T20:54:25.867Z,99973.81
2022-09-14T20:56:54.305Z,99964.59
2022-09-14T20:59:25.633Z,99965.44
2022-09-14T21:01:53.873Z,99967.06
2022-09-14T21:04:24.515Z,99962.38
2022-09-14T21:06:55.231Z,99955.88
2022-09-14T21:09:25.515Z,99953.88
2022-09-14T21:11:54.402Z,99945.28
2022-09-14T21:14:23.287Z,99949.59
2022-09-14T21:16:56.574Z,99944.53
2022-09-14T21:19:27.239Z,99942.31
2022-09-14T21:21:55.723Z,99945.56
2022-09-14T21:24:24.597Z,99942.31
2022-09-14T21:26:52.678Z,99961.13
2022-09-14T21:29:23.900Z,99956.00
2022-09-14T21:31:52.882Z,99945.59
2022-09-14T21:34:21.444Z,99946.19
2022-09-14T21:36:51.459Z,99933.94
2022-09-14T21:39:23.209Z,99932.53
2022-09-14T21:41:58.336Z,99929.03
2022-09-14T21:44:35.320Z,99933.53
2022-09-14T21:47:04.861Z,99934.34
2022-09-14T21:49:33.000Z,99931.09
2022-09-14T21:52:01.167Z,99934.34
2022-09-14T21:54:29.805Z,99922.28
2022-09-14T21:56:58.033Z,99927.41
2022-09-14T21:59:26.096Z,99917.00
2022-09-14T22:01:54.384Z,99930.50
2022-09-14T22:04:24.103Z,99929.28
2022-09-14T22:06:53.314Z,99933.56
2022-09-14T22:09:24.627Z,99929.66
2022-09-14T22:11:54.605Z,99933.78
2022-09-14T22:14:28.377Z,99931.75
2022-09-14T22:16:56.978Z,99938.06
2022-09-14T22:19:28.459Z,99930.91
2022-09-14T22:21:56.927Z,99932.94
2022-09-14T22:24:37.107Z,99944.41
2022-09-14T22:27:10.209Z,99928.25
2022-09-14T22:29:41.426Z,99927.44
2022-09-14T22:32:11.968Z,99919.66
2022-09-14T22:34:42.276Z,99926.03
2022-09-14T22:37:11.412Z,99919.47
2022-09-14T22:39:39.563Z,99923.78
2022-09-14T22:42:07.649Z,99913.53
2022-09-14T22:44:35.818Z,99911.28
2022-09-14T22:47:09.259Z,99912.53
2022-09-14T22:49:37.361Z,99920.69
2022-09-14T22:52:05.410Z,99921.13
2022-09-14T22:54:33.491Z,99929.50
2022-09-14T22:57:01.606Z,99925.41
2022-09-14T22:59:29.841Z,99914.13
2022-09-14T23:01:58.176Z,99914.97
2022-09-14T23:04:27.364Z,99915.41
2022-09-14T23:06:55.492Z,99920.50
2022-09-14T23:09:23.654Z,99924.19
2022-09-14T23:11:51.722Z,99912.53
2022-09-14T23:14:19.913Z,99910.66
2022-09-14T23:16:48.082Z,99902.47
2022-09-14T23:19:18.243Z,99899.22
2022-09-14T23:21:46.844Z,99913.09
2022-09-14T23:24:15.559Z,99914.78
2022-09-14T23:26:43.882Z,99907.63
2022-09-14T23:29:15.545Z,99912.72
2022-09-14T23:31:43.875Z,99913.97
2022-09-14T23:34:12.023Z,99908.88
2022-09-14T23:36:40.234Z,99908.06
2022-09-14T23:39:08.279Z,99910.91
2022-09-14T23:41:36.372Z,99916.66
2022-09-14T23:44:04.759Z,99909.94
2022-09-14T23:46:32.918Z,99908.28
2022-09-14T23:49:01.045Z,99895.66
2022-09-14T23:51:29.093Z,99894.22
2022-09-14T23:53:57.159Z,99894.03
2022-09-14T23:56:25.513Z,99891.38
2022-09-14T23:58:53.687Z,99886.84
